sensor_id;sensor_type;location;lat;lon;timestamp;P1;durP1;ratioP1;P2;durP2;ratioP2
15708;SDS011;7954;51.914;8.420;2023-06-26T00:01:23;5.77;;;5.37;;
15708;SDS011;7954;51.914;8.420;2023-06-26T00:03:51;5.83;;;5.43;;
15708;SDS011;7954;51.914;8.420;2023-06-26T00:06:20;5.60;;;5.20;;
15708;SDS011;7954;51.914;8.420;2023-06-26T00:08:51;5.30;;;4.90;;
15708;SDS011;7954;51.914;8.420;2023-06-26T00:11:19;6.20;;;5.70;;
15708;SDS011;7954;51.914;8.420;2023-06-26T00:13:47;5.63;;;5.13;;
15708;SDS011;7954;51.914;8.420;2023-06-26T00:16:15;6.30;;;5.80;;
15708;SDS011;7954;51.914;8.420;2023-06-26T00:18:43;6.17;;;5.63;;
15708;SDS011;7954;51.914;8.420;2023-06-26T00:21:11;6.50;;;6.00;;
15708;SDS011;7954;51.914;8.420;2023-06-26T00:23:41;6.40;;;5.80;;
15708;SDS011;7954;51.914;8.420;2023-06-26T00:26:09;5.70;;;5.30;;
15708;SDS011;7954;51.914;8.420;2023-06-26T00:28:37;6.17;;;5.67;;
15708;SDS011;7954;51.914;8.420;2023-06-26T00:31:06;6.23;;;5.73;;
15708;SDS011;7954;51.914;8.420;2023-06-26T00:33:34;5.67;;;5.27;;
15708;SDS011;7954;51.914;8.420;2023-06-26T00:36:02;5.80;;;5.30;;
15708;SDS011;7954;51.914;8.420;2023-06-26T00:38:31;5.93;;;5.43;;
15708;SDS011;7954;51.914;8.420;2023-06-26T00:41:00;5.90;;;5.37;;
15708;SDS011;7954;51.914;8.420;2023-06-26T00:43:28;5.93;;;5.40;;
15708;SDS011;7954;51.914;8.420;2023-06-26T00:45:56;5.73;;;5.33;;
15708;SDS011;7954;51.914;8.420;2023-06-26T00:48:24;5.97;;;5.47;;
15708;SDS011;7954;51.914;8.420;2023-06-26T00:50:52;5.77;;;5.37;;
15708;SDS011;7954;51.914;8.420;2023-06-26T00:53:20;6.20;;;5.70;;
15708;SDS011;7954;51.914;8.420;2023-06-26T00:55:49;5.60;;;5.20;;
15708;SDS011;7954;51.914;8.420;2023-06-26T00:58:18;5.67;;;5.27;;
15708;SDS011;7954;51.914;8.420;2023-06-26T01:00:47;5.80;;;5.40;;
15708;SDS011;7954;51.914;8.420;2023-06-26T01:03:15;5.73;;;5.33;;
15708;SDS011;7954;51.914;8.420;2023-06-26T01:05:43;6.00;;;5.50;;
15708;SDS011;7954;51.914;8.420;2023-06-26T01:08:15;6.03;;;5.43;;
15708;SDS011;7954;51.914;8.420;2023-06-26T01:10:44;5.97;;;5.50;;
15708;SDS011;7954;51.914;8.420;2023-06-26T01:13:12;5.47;;;5.07;;
15708;SDS011;7954;51.914;8.420;2023-06-26T01:15:45;5.67;;;5.27;;
15708;SDS011;7954;51.914;8.420;2023-06-26T01:18:14;5.90;;;5.40;;
15708;SDS011;7954;51.914;8.420;2023-06-26T01:20:43;6.00;;;5.50;;
15708;SDS011;7954;51.914;8.420;2023-06-26T01:23:12;6.00;;;5.40;;
15708;SDS011;7954;51.914;8.420;2023-06-26T01:25:47;7.83;;;4.90;;
15708;SDS011;7954;51.914;8.420;2023-06-26T01:28:25;5.43;;;5.03;;
15708;SDS011;7954;51.914;8.420;2023-06-26T01:30:55;5.57;;;5.17;;
15708;SDS011;7954;51.914;8.420;2023-06-26T01:33:23;7.77;;;5.63;;
15708;SDS011;7954;51.914;8.420;2023-06-26T01:35:51;5.90;;;4.90;;
15708;SDS011;7954;51.914;8.420;2023-06-26T01:38:20;6.70;;;6.20;;
15708;SDS011;7954;51.914;8.420;2023-06-26T01:40:49;5.23;;;4.83;;
15708;SDS011;7954;51.914;8.420;2023-06-26T01:43:19;5.63;;;5.13;;
15708;SDS011;7954;51.914;8.420;2023-06-26T01:45:54;5.63;;;5.13;;
15708;SDS011;7954;51.914;8.420;2023-06-26T01:48:27;5.57;;;5.17;;
15708;SDS011;7954;51.914;8.420;2023-06-26T01:50:59;5.80;;;5.30;;
15708;SDS011;7954;51.914;8.420;2023-06-26T01:53:31;5.90;;;5.50;;
15708;SDS011;7954;51.914;8.420;2023-06-26T01:56:05;5.43;;;5.03;;
15708;SDS011;7954;51.914;8.420;2023-06-26T01:58:36;5.57;;;5.17;;
15708;SDS011;7954;51.914;8.420;2023-06-26T02:01:08;5.53;;;5.03;;
15708;SDS011;7954;51.914;8.420;2023-06-26T02:03:36;5.27;;;4.87;;
15708;SDS011;7954;51.914;8.420;2023-06-26T02:06:05;5.50;;;5.10;;
15708;SDS011;7954;51.914;8.420;2023-06-26T02:08:33;5.73;;;5.33;;
15708;SDS011;7954;51.914;8.420;2023-06-26T02:11:01;5.23;;;4.83;;
15708;SDS011;7954;51.914;8.420;2023-06-26T02:13:29;5.70;;;5.13;;
15708;SDS011;7954;51.914;8.420;2023-06-26T02:15:56;5.13;;;4.73;;
15708;SDS011;7954;51.914;8.420;2023-06-26T02:18:26;5.83;;;5.20;;
15708;SDS011;7954;51.914;8.420;2023-06-26T02:20:54;5.60;;;5.20;;
15708;SDS011;7954;51.914;8.420;2023-06-26T02:23:22;7.60;;;6.23;;
15708;SDS011;7954;51.914;8.420;2023-06-26T02:25:50;5.20;;;4.80;;
15708;SDS011;7954;51.914;8.420;2023-06-26T02:28:18;5.67;;;5.27;;
15708;SDS011;7954;51.914;8.420;2023-06-26T02:30:46;5.50;;;5.00;;
15708;SDS011;7954;51.914;8.420;2023-06-26T02:33:14;5.40;;;4.90;;
15708;SDS011;7954;51.914;8.420;2023-06-26T02:35:44;5.23;;;4.83;;
15708;SDS011;7954;51.914;8.420;2023-06-26T02:38:11;5.07;;;4.73;;
15708;SDS011;7954;51.914;8.420;2023-06-26T02:40:39;5.53;;;5.13;;
15708;SDS011;7954;51.914;8.420;2023-06-26T02:43:07;5.57;;;5.07;;
15708;SDS011;7954;51.914;8.420;2023-06-26T02:45:35;5.80;;;5.40;;
15708;SDS011;7954;51.914;8.420;2023-06-26T02:48:03;5.73;;;5.27;;
15708;SDS011;7954;51.914;8.420;2023-06-26T02:50:32;5.57;;;5.10;;
15708;SDS011;7954;51.914;8.420;2023-06-26T02:53:02;5.30;;;4.90;;
15708;SDS011;7954;51.914;8.420;2023-06-26T02:55:31;6.77;;;5.90;;
15708;SDS011;7954;51.914;8.420;2023-06-26T02:58:00;5.23;;;4.83;;
15708;SDS011;7954;51.914;8.420;2023-06-26T03:00:28;5.63;;;5.23;;
15708;SDS011;7954;51.914;8.420;2023-06-26T03:02:56;5.73;;;5.23;;
15708;SDS011;7954;51.914;8.420;2023-06-26T03:05:24;5.73;;;5.33;;
15708;SDS011;7954;51.914;8.420;2023-06-26T03:07:52;5.03;;;4.63;;
15708;SDS011;7954;51.914;8.420;2023-06-26T03:10:22;5.87;;;5.37;;
15708;SDS011;7954;51.914;8.420;2023-06-26T03:12:51;5.33;;;4.83;;
15708;SDS011;7954;51.914;8.420;2023-06-26T03:15:19;5.37;;;4.90;;
15708;SDS011;7954;51.914;8.420;2023-06-26T03:17:47;5.43;;;5.00;;
15708;SDS011;7954;51.914;8.420;2023-06-26T03:20:15;5.00;;;4.60;;
15708;SDS011;7954;51.914;8.420;2023-06-26T03:22:43;5.50;;;5.10;;
15708;SDS011;7954;51.914;8.420;2023-06-26T03:25:10;5.87;;;5.37;;
15708;SDS011;7954;51.914;8.420;2023-06-26T03:27:40;5.87;;;5.37;;
15708;SDS011;7954;51.914;8.420;2023-06-26T03:30:08;5.80;;;5.30;;
15708;SDS011;7954;51.914;8.420;2023-06-26T03:32:37;5.47;;;5.07;;
15708;SDS011;7954;51.914;8.420;2023-06-26T03:35:05;5.90;;;5.40;;
15708;SDS011;7954;51.914;8.420;2023-06-26T03:37:34;6.20;;;5.53;;
15708;SDS011;7954;51.914;8.420;2023-06-26T03:40:02;6.00;;;5.50;;
15708;SDS011;7954;51.914;8.420;2023-06-26T03:42:31;5.80;;;5.40;;
15708;SDS011;7954;51.914;8.420;2023-06-26T03:45:01;5.60;;;5.20;;
15708;SDS011;7954;51.914;8.420;2023-06-26T03:47:29;6.37;;;5.87;;
15708;SDS011;7954;51.914;8.420;2023-06-26T03:49:57;5.60;;;5.20;;
15708;SDS011;7954;51.914;8.420;2023-06-26T03:52:26;5.80;;;5.30;;
15708;SDS011;7954;51.914;8.420;2023-06-26T03:54:53;5.67;;;5.27;;
15708;SDS011;7954;51.914;8.420;2023-06-26T03:57:21;5.67;;;5.27;;
15708;SDS011;7954;51.914;8.420;2023-06-26T03:59:49;6.03;;;5.53;;
15708;SDS011;7954;51.914;8.420;2023-06-26T04:02:19;5.33;;;4.93;;
15708;SDS011;7954;51.914;8.420;2023-06-26T04:04:47;6.23;;;5.67;;
15708;SDS011;7954;51.914;8.420;2023-06-26T04:07:15;5.77;;;5.30;;
15708;SDS011;7954;51.914;8.420;2023-06-26T04:09:43;5.50;;;5.00;;
15708;SDS011;7954;51.914;8.420;2023-06-26T04:12:10;5.87;;;5.37;;
15708;SDS011;7954;51.914;8.420;2023-06-26T04:14:38;6.07;;;5.57;;
15708;SDS011;7954;51.914;8.420;2023-06-26T04:17:06;7.33;;;5.53;;
15708;SDS011;7954;51.914;8.420;2023-06-26T04:19:36;6.10;;;5.57;;
15708;SDS011;7954;51.914;8.420;2023-06-26T04:22:04;7.00;;;6.40;;
15708;SDS011;7954;51.914;8.420;2023-06-26T04:24:32;5.63;;;5.23;;
15708;SDS011;7954;51.914;8.420;2023-06-26T04:27:00;5.80;;;5.33;;
15708;SDS011;7954;51.914;8.420;2023-06-26T04:29:27;5.83;;;5.33;;
15708;SDS011;7954;51.914;8.420;2023-06-26T04:31:55;5.43;;;4.93;;
15708;SDS011;7954;51.914;8.420;2023-06-26T04:34:25;5.03;;;4.63;;
15708;SDS011;7954;51.914;8.420;2023-06-26T04:36:54;5.63;;;4.93;;
15708;SDS011;7954;51.914;8.420;2023-06-26T04:39:22;5.20;;;4.80;;
15708;SDS011;7954;51.914;8.420;2023-06-26T04:41:50;6.20;;;5.47;;
15708;SDS011;7954;51.914;8.420;2023-06-26T04:44:19;5.30;;;4.90;;
15708;SDS011;7954;51.914;8.420;2023-06-26T04:46:47;5.47;;;5.07;;
15708;SDS011;7954;51.914;8.420;2023-06-26T04:49:18;5.50;;;5.10;;
15708;SDS011;7954;51.914;8.420;2023-06-26T04:51:46;6.30;;;5.30;;
15708;SDS011;7954;51.914;8.420;2023-06-26T04:54:16;5.60;;;5.07;;
15708;SDS011;7954;51.914;8.420;2023-06-26T04:56:44;7.27;;;5.17;;
15708;SDS011;7954;51.914;8.420;2023-06-26T04:59:13;5.47;;;5.07;;
15708;SDS011;7954;51.914;8.420;2023-06-26T05:01:41;6.83;;;6.23;;
15708;SDS011;7954;51.914;8.420;2023-06-26T05:04:14;5.50;;;5.00;;
15708;SDS011;7954;51.914;8.420;2023-06-26T05:06:42;5.67;;;5.17;;
15708;SDS011;7954;51.914;8.420;2023-06-26T05:09:10;5.70;;;5.20;;
15708;SDS011;7954;51.914;8.420;2023-06-26T05:11:40;5.37;;;4.97;;
15708;SDS011;7954;51.914;8.420;2023-06-26T05:14:09;7.17;;;5.53;;
15708;SDS011;7954;51.914;8.420;2023-06-26T05:16:37;5.53;;;5.03;;
15708;SDS011;7954;51.914;8.420;2023-06-26T05:19:05;5.73;;;5.13;;
15708;SDS011;7954;51.914;8.420;2023-06-26T05:21:34;5.73;;;5.10;;
15708;SDS011;7954;51.914;8.420;2023-06-26T05:24:03;5.93;;;4.80;;
15708;SDS011;7954;51.914;8.420;2023-06-26T05:26:33;5.87;;;5.37;;
15708;SDS011;7954;51.914;8.420;2023-06-26T05:29:04;5.10;;;4.70;;
15708;SDS011;7954;51.914;8.420;2023-06-26T05:31:32;8.17;;;5.03;;
15708;SDS011;7954;51.914;8.420;2023-06-26T05:34:02;5.53;;;5.13;;
15708;SDS011;7954;51.914;8.420;2023-06-26T05:36:31;7.00;;;5.30;;
15708;SDS011;7954;51.914;8.420;2023-06-26T05:39:02;6.37;;;4.87;;
15708;SDS011;7954;51.914;8.420;2023-06-26T05:41:31;6.43;;;5.20;;
15708;SDS011;7954;51.914;8.420;2023-06-26T05:43:59;5.33;;;4.83;;
15708;SDS011;7954;51.914;8.420;2023-06-26T05:46:29;5.80;;;5.30;;
15708;SDS011;7954;51.914;8.420;2023-06-26T05:48:56;5.43;;;4.93;;
15708;SDS011;7954;51.914;8.420;2023-06-26T05:51:25;5.40;;;4.77;;
15708;SDS011;7954;51.914;8.420;2023-06-26T05:53:53;6.13;;;4.97;;
15708;SDS011;7954;51.914;8.420;2023-06-26T05:56:21;5.23;;;4.83;;
15708;SDS011;7954;51.914;8.420;2023-06-26T05:58:49;4.57;;;4.17;;
15708;SDS011;7954;51.914;8.420;2023-06-26T06:01:18;5.63;;;5.13;;
15708;SDS011;7954;51.914;8.420;2023-06-26T06:03:48;5.43;;;5.03;;
15708;SDS011;7954;51.914;8.420;2023-06-26T06:06:17;5.27;;;4.87;;
15708;SDS011;7954;51.914;8.420;2023-06-26T06:08:45;5.20;;;4.80;;
15708;SDS011;7954;51.914;8.420;2023-06-26T06:11:15;6.00;;;5.50;;
15708;SDS011;7954;51.914;8.420;2023-06-26T06:13:42;6.13;;;5.53;;
15708;SDS011;7954;51.914;8.420;2023-06-26T06:16:10;6.47;;;5.70;;
15708;SDS011;7954;51.914;8.420;2023-06-26T06:18:38;6.20;;;5.70;;
15708;SDS011;7954;51.914;8.420;2023-06-26T06:21:08;6.07;;;5.47;;
15708;SDS011;7954;51.914;8.420;2023-06-26T06:23:36;6.30;;;5.80;;
15708;SDS011;7954;51.914;8.420;2023-06-26T06:26:04;5.73;;;5.10;;
15708;SDS011;7954;51.914;8.420;2023-06-26T06:28:32;6.53;;;5.83;;
15708;SDS011;7954;51.914;8.420;2023-06-26T06:31:00;6.83;;;5.57;;
15708;SDS011;7954;51.914;8.420;2023-06-26T06:33:28;5.57;;;5.07;;
15708;SDS011;7954;51.914;8.420;2023-06-26T06:35:55;6.27;;;5.77;;
15708;SDS011;7954;51.914;8.420;2023-06-26T06:38:25;5.73;;;5.23;;
15708;SDS011;7954;51.914;8.420;2023-06-26T06:40:53;5.97;;;5.40;;
15708;SDS011;7954;51.914;8.420;2023-06-26T06:43:21;5.47;;;4.97;;
15708;SDS011;7954;51.914;8.420;2023-06-26T06:45:49;5.70;;;5.20;;
15708;SDS011;7954;51.914;8.420;2023-06-26T06:48:17;8.40;;;5.30;;
15708;SDS011;7954;51.914;8.420;2023-06-26T06:50:44;6.03;;;5.60;;
15708;SDS011;7954;51.914;8.420;2023-06-26T06:53:12;5.93;;;5.43;;
15708;SDS011;7954;51.914;8.420;2023-06-26T06:55:42;7.23;;;5.27;;
15708;SDS011;7954;51.914;8.420;2023-06-26T06:58:09;5.90;;;5.37;;
15708;SDS011;7954;51.914;8.420;2023-06-26T07:00:38;7.00;;;6.23;;
15708;SDS011;7954;51.914;8.420;2023-06-26T07:03:06;6.83;;;5.93;;
15708;SDS011;7954;51.914;8.420;2023-06-26T07:05:34;7.00;;;6.20;;
15708;SDS011;7954;51.914;8.420;2023-06-26T07:08:02;6.80;;;6.10;;
15708;SDS011;7954;51.914;8.420;2023-06-26T07:10:30;6.17;;;5.07;;
15708;SDS011;7954;51.914;8.420;2023-06-26T07:13:00;6.50;;;5.83;;
15708;SDS011;7954;51.914;8.420;2023-06-26T07:15:28;6.00;;;5.40;;
15708;SDS011;7954;51.914;8.420;2023-06-26T07:17:56;7.10;;;6.40;;
15708;SDS011;7954;51.914;8.420;2023-06-26T07:20:24;5.67;;;5.17;;
15708;SDS011;7954;51.914;8.420;2023-06-26T07:22:52;6.40;;;5.73;;
15708;SDS011;7954;51.914;8.420;2023-06-26T07:25:21;7.53;;;6.10;;
15708;SDS011;7954;51.914;8.420;2023-06-26T07:27:49;5.80;;;5.20;;
15708;SDS011;7954;51.914;8.420;2023-06-26T07:30:18;5.90;;;5.40;;
15708;SDS011;7954;51.914;8.420;2023-06-26T07:32:46;7.40;;;5.80;;
15708;SDS011;7954;51.914;8.420;2023-06-26T07:35:14;5.53;;;5.03;;
15708;SDS011;7954;51.914;8.420;2023-06-26T07:37:43;6.73;;;5.80;;
15708;SDS011;7954;51.914;8.420;2023-06-26T07:40:10;6.00;;;5.50;;
15708;SDS011;7954;51.914;8.420;2023-06-26T07:42:39;7.83;;;5.53;;
15708;SDS011;7954;51.914;8.420;2023-06-26T07:45:08;6.07;;;5.50;;
15708;SDS011;7954;51.914;8.420;2023-06-26T07:47:40;5.70;;;5.17;;
15708;SDS011;7954;51.914;8.420;2023-06-26T07:50:08;8.50;;;5.03;;
15708;SDS011;7954;51.914;8.420;2023-06-26T07:52:36;6.50;;;5.43;;
15708;SDS011;7954;51.914;8.420;2023-06-26T07:55:05;6.23;;;5.63;;
15708;SDS011;7954;51.914;8.420;2023-06-26T07:57:33;6.20;;;5.60;;
15708;SDS011;7954;51.914;8.420;2023-06-26T08:00:02;7.00;;;6.33;;
15708;SDS011;7954;51.914;8.420;2023-06-26T08:02:33;5.90;;;5.30;;
15708;SDS011;7954;51.914;8.420;2023-06-26T08:05:03;6.27;;;5.67;;
15708;SDS011;7954;51.914;8.420;2023-06-26T08:07:31;8.43;;;6.30;;
15708;SDS011;7954;51.914;8.420;2023-06-26T08:09:59;7.67;;;6.87;;
15708;SDS011;7954;51.914;8.420;2023-06-26T08:12:26;9.77;;;6.97;;
15708;SDS011;7954;51.914;8.420;2023-06-26T08:14:54;6.20;;;5.60;;
15708;SDS011;7954;51.914;8.420;2023-06-26T08:17:22;7.97;;;7.17;;
15708;SDS011;7954;51.914;8.420;2023-06-26T08:19:50;6.93;;;6.13;;
15708;SDS011;7954;51.914;8.420;2023-06-26T08:22:19;6.40;;;5.80;;
15708;SDS011;7954;51.914;8.420;2023-06-26T08:24:47;7.67;;;5.40;;
15708;SDS011;7954;51.914;8.420;2023-06-26T08:27:15;9.50;;;5.90;;
15708;SDS011;7954;51.914;8.420;2023-06-26T08:29:43;7.67;;;6.87;;
15708;SDS011;7954;51.914;8.420;2023-06-26T08:32:11;7.47;;;6.73;;
15708;SDS011;7954;51.914;8.420;2023-06-26T08:34:39;10.10;;;7.10;;
15708;SDS011;7954;51.914;8.420;2023-06-26T08:37:07;6.53;;;5.87;;
15708;SDS011;7954;51.914;8.420;2023-06-26T08:39:37;7.57;;;5.90;;
15708;SDS011;7954;51.914;8.420;2023-06-26T08:42:05;9.93;;;6.40;;
15708;SDS011;7954;51.914;8.420;2023-06-26T08:44:33;8.70;;;6.13;;
15708;SDS011;7954;51.914;8.420;2023-06-26T08:47:06;6.70;;;6.10;;
15708;SDS011;7954;51.914;8.420;2023-06-26T08:49:35;9.03;;;6.93;;
15708;SDS011;7954;51.914;8.420;2023-06-26T08:52:10;7.90;;;6.03;;
15708;SDS011;7954;51.914;8.420;2023-06-26T08:54:46;7.80;;;5.93;;
15708;SDS011;7954;51.914;8.420;2023-06-26T08:57:23;7.87;;;6.53;;
15708;SDS011;7954;51.914;8.420;2023-06-26T08:59:52;7.50;;;5.87;;
15708;SDS011;7954;51.914;8.420;2023-06-26T09:02:21;9.57;;;6.80;;
15708;SDS011;7954;51.914;8.420;2023-06-26T09:04:50;7.20;;;6.23;;
15708;SDS011;7954;51.914;8.420;2023-06-26T09:07:18;7.37;;;5.53;;
15708;SDS011;7954;51.914;8.420;2023-06-26T09:09:48;8.90;;;6.50;;
15708;SDS011;7954;51.914;8.420;2023-06-26T09:12:16;8.90;;;6.57;;
15708;SDS011;7954;51.914;8.420;2023-06-26T09:14:44;8.63;;;6.00;;
15708;SDS011;7954;51.914;8.420;2023-06-26T09:17:12;8.60;;;6.20;;
15708;SDS011;7954;51.914;8.420;2023-06-26T09:19:41;7.77;;;6.37;;
15708;SDS011;7954;51.914;8.420;2023-06-26T09:22:13;7.07;;;5.93;;
15708;SDS011;7954;51.914;8.420;2023-06-26T09:24:42;7.70;;;6.73;;
15708;SDS011;7954;51.914;8.420;2023-06-26T09:27:12;7.50;;;5.63;;
15708;SDS011;7954;51.914;8.420;2023-06-26T09:29:40;6.57;;;5.80;;
15708;SDS011;7954;51.914;8.420;2023-06-26T09:32:09;6.70;;;5.40;;
15708;SDS011;7954;51.914;8.420;2023-06-26T09:34:41;7.17;;;5.10;;
15708;SDS011;7954;51.914;8.420;2023-06-26T09:37:11;6.80;;;5.00;;
15708;SDS011;7954;51.914;8.420;2023-06-26T09:39:39;6.90;;;5.33;;
15708;SDS011;7954;51.914;8.420;2023-06-26T09:42:08;6.23;;;5.30;;
15708;SDS011;7954;51.914;8.420;2023-06-26T09:44:37;7.30;;;5.43;;
15708;SDS011;7954;51.914;8.420;2023-06-26T09:47:11;7.33;;;5.87;;
15708;SDS011;7954;51.914;8.420;2023-06-26T09:49:40;6.73;;;5.87;;
15708;SDS011;7954;51.914;8.420;2023-06-26T09:52:09;7.63;;;5.57;;
15708;SDS011;7954;51.914;8.420;2023-06-26T09:54:37;6.70;;;4.90;;
15708;SDS011;7954;51.914;8.420;2023-06-26T09:57:08;7.83;;;5.70;;
15708;SDS011;7954;51.914;8.420;2023-06-26T09:59:37;7.97;;;5.20;;
15708;SDS011;7954;51.914;8.420;2023-06-26T10:02:06;6.07;;;4.87;;
15708;SDS011;7954;51.914;8.420;2023-06-26T10:04:35;8.23;;;4.87;;
15708;SDS011;7954;51.914;8.420;2023-06-26T10:07:04;7.53;;;4.83;;
15708;SDS011;7954;51.914;8.420;2023-06-26T10:09:34;6.33;;;5.57;;
15708;SDS011;7954;51.914;8.420;2023-06-26T10:12:06;7.00;;;4.70;;
15708;SDS011;7954;51.914;8.420;2023-06-26T10:14:40;8.23;;;5.10;;
15708;SDS011;7954;51.914;8.420;2023-06-26T10:17:13;8.13;;;5.77;;
15708;SDS011;7954;51.914;8.420;2023-06-26T10:19:46;7.43;;;4.90;;
15708;SDS011;7954;51.914;8.420;2023-06-26T10:22:16;8.23;;;5.17;;
15708;SDS011;7954;51.914;8.420;2023-06-26T10:24:45;6.63;;;5.23;;
15708;SDS011;7954;51.914;8.420;2023-06-26T10:27:16;7.00;;;5.17;;
15708;SDS011;7954;51.914;8.420;2023-06-26T10:29:48;6.83;;;4.43;;
15708;SDS011;7954;51.914;8.420;2023-06-26T10:32:20;6.93;;;5.57;;
15708;SDS011;7954;51.914;8.420;2023-06-26T10:34:51;7.03;;;4.80;;
15708;SDS011;7954;51.914;8.420;2023-06-26T10:37:20;5.43;;;4.27;;
15708;SDS011;7954;51.914;8.420;2023-06-26T10:39:48;6.90;;;4.30;;
15708;SDS011;7954;51.914;8.420;2023-06-26T10:42:17;7.27;;;4.90;;
15708;SDS011;7954;51.914;8.420;2023-06-26T10:44:47;5.83;;;4.70;;
15708;SDS011;7954;51.914;8.420;2023-06-26T10:47:29;6.67;;;3.90;;
15708;SDS011;7954;51.914;8.420;2023-06-26T10:53:07;7.13;;;4.70;;
15708;SDS011;7954;51.914;8.420;2023-06-26T10:55:37;4.80;;;4.40;;
15708;SDS011;7954;51.914;8.420;2023-06-26T10:58:26;16.67;;;5.33;;
15708;SDS011;7954;51.914;8.420;2023-06-26T11:04:05;4.43;;;3.47;;
15708;SDS011;7954;51.914;8.420;2023-06-26T11:06:34;6.47;;;4.00;;
15708;SDS011;7954;51.914;8.420;2023-06-26T11:09:09;6.03;;;4.70;;
15708;SDS011;7954;51.914;8.420;2023-06-26T11:11:57;4.23;;;3.83;;
15708;SDS011;7954;51.914;8.420;2023-06-26T11:14:28;6.53;;;5.17;;
15708;SDS011;7954;51.914;8.420;2023-06-26T11:16:58;7.83;;;3.97;;
15708;SDS011;7954;51.914;8.420;2023-06-26T11:19:30;4.93;;;3.90;;
15708;SDS011;7954;51.914;8.420;2023-06-26T11:21:59;6.97;;;6.23;;
15708;SDS011;7954;51.914;8.420;2023-06-26T11:24:29;3.40;;;2.90;;
15708;SDS011;7954;51.914;8.420;2023-06-26T11:27:01;5.10;;;3.63;;
15708;SDS011;7954;51.914;8.420;2023-06-26T11:29:31;4.13;;;3.73;;
15708;SDS011;7954;51.914;8.420;2023-06-26T11:32:00;5.10;;;4.70;;
15708;SDS011;7954;51.914;8.420;2023-06-26T11:34:34;8.67;;;4.03;;
15708;SDS011;7954;51.914;8.420;2023-06-26T11:37:04;5.60;;;3.13;;
15708;SDS011;7954;51.914;8.420;2023-06-26T11:39:33;3.58;;;2.85;;
15708;SDS011;7954;51.914;8.420;2023-06-26T11:42:00;5.20;;;3.67;;
15708;SDS011;7954;51.914;8.420;2023-06-26T11:44:30;4.25;;;3.55;;
15708;SDS011;7954;51.914;8.420;2023-06-26T11:46:58;3.93;;;3.20;;
15708;SDS011;7954;51.914;8.420;2023-06-26T11:49:26;6.00;;;5.13;;
15708;SDS011;7954;51.914;8.420;2023-06-26T11:51:59;4.13;;;3.73;;
15708;SDS011;7954;51.914;8.420;2023-06-26T11:54:30;4.22;;;3.03;;
15708;SDS011;7954;51.914;8.420;2023-06-26T11:56:59;4.63;;;4.20;;
15708;SDS011;7954;51.914;8.420;2023-06-26T11:59:34;5.88;;;4.07;;
15708;SDS011;7954;51.914;8.420;2023-06-26T12:02:06;8.48;;;7.72;;
15708;SDS011;7954;51.914;8.420;2023-06-26T12:04:35;7.85;;;7.15;;
15708;SDS011;7954;51.914;8.420;2023-06-26T12:07:07;4.03;;;3.72;;
15708;SDS011;7954;51.914;8.420;2023-06-26T12:09:40;6.13;;;3.95;;
15708;SDS011;7954;51.914;8.420;2023-06-26T12:12:10;4.30;;;3.90;;
15708;SDS011;7954;51.914;8.420;2023-06-26T12:14:39;4.60;;;3.30;;
15708;SDS011;7954;51.914;8.420;2023-06-26T12:17:08;3.10;;;2.80;;
15708;SDS011;7954;51.914;8.420;2023-06-26T12:19:37;2.88;;;2.67;;
15708;SDS011;7954;51.914;8.420;2023-06-26T12:22:08;5.78;;;3.72;;
15708;SDS011;7954;51.914;8.420;2023-06-26T12:24:38;4.18;;;3.60;;
15708;SDS011;7954;51.914;8.420;2023-06-26T12:27:09;4.47;;;3.45;;
15708;SDS011;7954;51.914;8.420;2023-06-26T12:29:38;4.38;;;3.95;;
15708;SDS011;7954;51.914;8.420;2023-06-26T12:32:08;5.78;;;3.72;;
15708;SDS011;7954;51.914;8.420;2023-06-26T12:34:38;3.83;;;3.13;;
15708;SDS011;7954;51.914;8.420;2023-06-26T12:37:08;3.55;;;3.25;;
15708;SDS011;7954;51.914;8.420;2023-06-26T12:39:47;4.18;;;3.78;;
15708;SDS011;7954;51.914;8.420;2023-06-26T12:42:17;4.13;;;3.05;;
15708;SDS011;7954;51.914;8.420;2023-06-26T12:44:46;3.30;;;2.50;;
15708;SDS011;7954;51.914;8.420;2023-06-26T12:47:14;5.50;;;3.60;;
15708;SDS011;7954;51.914;8.420;2023-06-26T12:49:43;3.03;;;2.83;;
15708;SDS011;7954;51.914;8.420;2023-06-26T12:52:14;3.65;;;2.85;;
15708;SDS011;7954;51.914;8.420;2023-06-26T12:54:42;2.53;;;2.33;;
15708;SDS011;7954;51.914;8.420;2023-06-26T12:57:11;4.47;;;3.00;;
15708;SDS011;7954;51.914;8.420;2023-06-26T12:59:41;4.60;;;3.30;;
15708;SDS011;7954;51.914;8.420;2023-06-26T13:02:09;6.95;;;5.25;;
15708;SDS011;7954;51.914;8.420;2023-06-26T13:04:38;4.00;;;3.53;;
15708;SDS011;7954;51.914;8.420;2023-06-26T13:07:08;8.82;;;2.92;;
15708;SDS011;7954;51.914;8.420;2023-06-26T13:09:38;4.22;;;3.38;;
15708;SDS011;7954;51.914;8.420;2023-06-26T13:12:07;3.75;;;2.42;;
15708;SDS011;7954;51.914;8.420;2023-06-26T13:14:37;3.08;;;2.78;;
15708;SDS011;7954;51.914;8.420;2023-06-26T13:17:05;2.83;;;2.47;;
15708;SDS011;7954;51.914;8.420;2023-06-26T13:19:35;5.13;;;4.63;;
15708;SDS011;7954;51.914;8.420;2023-06-26T13:22:04;3.90;;;3.60;;
15708;SDS011;7954;51.914;8.420;2023-06-26T13:24:32;4.45;;;2.40;;
15708;SDS011;7954;51.914;8.420;2023-06-26T13:27:02;2.70;;;2.28;;
15708;SDS011;7954;51.914;8.420;2023-06-26T13:29:31;4.25;;;3.92;;
15708;SDS011;7954;51.914;8.420;2023-06-26T13:32:00;3.20;;;2.42;;
15708;SDS011;7954;51.914;8.420;2023-06-26T13:34:31;7.88;;;5.55;;
15708;SDS011;7954;51.914;8.420;2023-06-26T13:36:59;4.00;;;3.08;;
15708;SDS011;7954;51.914;8.420;2023-06-26T13:39:28;3.20;;;2.60;;
15708;SDS011;7954;51.914;8.420;2023-06-26T13:41:56;3.30;;;2.92;;
15708;SDS011;7954;51.914;8.420;2023-06-26T13:44:26;3.70;;;2.88;;
15708;SDS011;7954;51.914;8.420;2023-06-26T13:47:04;5.95;;;3.90;;
15708;SDS011;7954;51.914;8.420;2023-06-26T13:49:36;5.22;;;2.72;;
15708;SDS011;7954;51.914;8.420;2023-06-26T13:52:06;4.40;;;3.00;;
15708;SDS011;7954;51.914;8.420;2023-06-26T13:54:36;2.67;;;2.47;;
15708;SDS011;7954;51.914;8.420;2023-06-26T13:57:05;3.33;;;3.10;;
15708;SDS011;7954;51.914;8.420;2023-06-26T13:59:38;6.00;;;3.53;;
15708;SDS011;7954;51.914;8.420;2023-06-26T14:02:07;6.80;;;3.08;;
15708;SDS011;7954;51.914;8.420;2023-06-26T14:04:35;3.65;;;3.33;;
15708;SDS011;7954;51.914;8.420;2023-06-26T14:07:04;3.08;;;2.28;;
15708;SDS011;7954;51.914;8.420;2023-06-26T14:09:32;3.78;;;2.25;;
15708;SDS011;7954;51.914;8.420;2023-06-26T14:12:00;4.32;;;2.70;;
15708;SDS011;7954;51.914;8.420;2023-06-26T14:14:30;3.03;;;2.75;;
15708;SDS011;7954;51.914;8.420;2023-06-26T14:16:59;3.58;;;2.83;;
15708;SDS011;7954;51.914;8.420;2023-06-26T14:19:27;10.55;;;8.15;;
15708;SDS011;7954;51.914;8.420;2023-06-26T14:21:56;5.00;;;4.07;;
15708;SDS011;7954;51.914;8.420;2023-06-26T14:24:26;5.00;;;3.40;;
15708;SDS011;7954;51.914;8.420;2023-06-26T14:26:54;5.30;;;4.40;;
15708;SDS011;7954;51.914;8.420;2023-06-26T14:29:22;5.60;;;4.35;;
15708;SDS011;7954;51.914;8.420;2023-06-26T14:31:49;4.78;;;3.50;;
15708;SDS011;7954;51.914;8.420;2023-06-26T14:34:23;3.47;;;3.13;;
15708;SDS011;7954;51.914;8.420;2023-06-26T14:36:52;5.60;;;4.32;;
15708;SDS011;7954;51.914;8.420;2023-06-26T14:39:21;2.88;;;1.90;;
15708;SDS011;7954;51.914;8.420;2023-06-26T14:41:52;4.07;;;3.22;;
15708;SDS011;7954;51.914;8.420;2023-06-26T14:44:20;2.45;;;2.22;;
15708;SDS011;7954;51.914;8.420;2023-06-26T14:46:49;5.22;;;3.28;;
15708;SDS011;7954;51.914;8.420;2023-06-26T14:49:17;6.70;;;3.60;;
15708;SDS011;7954;51.914;8.420;2023-06-26T14:51:48;2.92;;;2.72;;
15708;SDS011;7954;51.914;8.420;2023-06-26T14:54:16;10.20;;;8.13;;
15708;SDS011;7954;51.914;8.420;2023-06-26T14:56:44;3.83;;;3.30;;
15708;SDS011;7954;51.914;8.420;2023-06-26T14:59:12;7.13;;;6.60;;
15708;SDS011;7954;51.914;8.420;2023-06-26T15:01:41;6.50;;;5.50;;
15708;SDS011;7954;51.914;8.420;2023-06-26T15:04:09;4.85;;;3.90;;
15708;SDS011;7954;51.914;8.420;2023-06-26T15:06:37;3.47;;;2.92;;
15708;SDS011;7954;51.914;8.420;2023-06-26T15:09:07;5.00;;;4.50;;
15708;SDS011;7954;51.914;8.420;2023-06-26T15:11:35;3.67;;;3.38;;
15708;SDS011;7954;51.914;8.420;2023-06-26T15:14:03;2.83;;;2.63;;
15708;SDS011;7954;51.914;8.420;2023-06-26T15:16:31;5.13;;;4.40;;
15708;SDS011;7954;51.914;8.420;2023-06-26T15:18:59;4.10;;;3.80;;